sensor_id;sensor_type;location;lat;lon;timestamp;P1;durP1;ratioP1;P2;durP2;ratioP2
22549;SDS011;11441;57.164;-2.120;2022-11-09T00:01:24;1.55;;;0.80;;
22549;SDS011;11441;57.164;-2.120;2022-11-09T00:03:54;2.30;;;0.43;;
22549;SDS011;11441;57.164;-2.120;2022-11-09T00:06:22;2.63;;;0.80;;
22549;SDS011;11441;57.164;-2.120;2022-11-09T00:08:50;3.28;;;0.63;;
22549;SDS011;11441;57.164;-2.120;2022-11-09T00:11:17;2.40;;;0.57;;
22549;SDS011;11441;57.164;-2.120;2022-11-09T00:13:44;1.90;;;0.75;;
22549;SDS011;11441;57.164;-2.120;2022-11-09T00:16:13;2.30;;;0.68;;
22549;SDS011;11441;57.164;-2.120;2022-11-09T00:18:41;1.13;;;0.40;;
22549;SDS011;11441;57.164;-2.120;2022-11-09T00:21:17;3.20;;;0.43;;
22549;SDS011;11441;57.164;-2.120;2022-11-09T00:23:45;1.38;;;0.50;;
22549;SDS011;11441;57.164;-2.120;2022-11-09T00:26:31;2.40;;;0.50;;
22549;SDS011;11441;57.164;-2.120;2022-11-09T00:28:58;0.80;;;0.50;;
22549;SDS011;11441;57.164;-2.120;2022-11-09T00:31:25;3.60;;;0.43;;
22549;SDS011;11441;57.164;-2.120;2022-11-09T00:34:09;2.67;;;0.80;;
22549;SDS011;11441;57.164;-2.120;2022-11-09T00:36:36;3.15;;;0.45;;
22549;SDS011;11441;57.164;-2.120;2022-11-09T00:39:07;2.70;;;0.50;;
22549;SDS011;11441;57.164;-2.120;2022-11-09T00:41:34;2.00;;;0.50;;
22549;SDS011;11441;57.164;-2.120;2022-11-09T00:44:01;0.95;;;0.30;;
22549;SDS011;11441;57.164;-2.120;2022-11-09T00:46:28;4.20;;;0.40;;
22549;SDS011;11441;57.164;-2.120;2022-11-09T00:48:55;0.95;;;0.30;;
22549;SDS011;11441;57.164;-2.120;2022-11-09T00:51:22;2.10;;;0.30;;
22549;SDS011;11441;57.164;-2.120;2022-11-09T00:53:49;0.55;;;0.45;;
22549;SDS011;11441;57.164;-2.120;2022-11-09T00:56:20;1.75;;;0.50;;
22549;SDS011;11441;57.164;-2.120;2022-11-09T00:58:50;4.22;;;0.50;;
22549;SDS011;11441;57.164;-2.120;2022-11-09T01:01:19;0.73;;;0.30;;
22549;SDS011;11441;57.164;-2.120;2022-11-09T01:03:46;1.42;;;0.55;;
22549;SDS011;11441;57.164;-2.120;2022-11-09T01:06:14;0.63;;;0.43;;
22549;SDS011;11441;57.164;-2.120;2022-11-09T01:08:43;3.45;;;1.33;;
22549;SDS011;11441;57.164;-2.120;2022-11-09T01:11:13;2.05;;;0.60;;
22549;SDS011;11441;57.164;-2.120;2022-11-09T01:13:59;1.17;;;0.35;;
22549;SDS011;11441;57.164;-2.120;2022-11-09T01:16:27;2.33;;;0.80;;
22549;SDS011;11441;57.164;-2.120;2022-11-09T01:18:55;1.30;;;0.40;;
22549;SDS011;11441;57.164;-2.120;2022-11-09T01:21:24;3.47;;;1.13;;
22549;SDS011;11441;57.164;-2.120;2022-11-09T01:23:52;4.15;;;0.68;;
22549;SDS011;11441;57.164;-2.120;2022-11-09T01:26:20;4.30;;;0.50;;
22549;SDS011;11441;57.164;-2.120;2022-11-09T01:28:49;1.70;;;0.90;;
22549;SDS011;11441;57.164;-2.120;2022-11-09T01:31:18;1.45;;;0.57;;
22549;SDS011;11441;57.164;-2.120;2022-11-09T01:33:46;1.95;;;0.85;;
22549;SDS011;11441;57.164;-2.120;2022-11-09T01:36:22;5.63;;;0.90;;
22549;SDS011;11441;57.164;-2.120;2022-11-09T01:38:50;1.40;;;0.57;;
22549;SDS011;11441;57.164;-2.120;2022-11-09T01:41:18;2.42;;;0.32;;
22549;SDS011;11441;57.164;-2.120;2022-11-09T01:49:22;1.30;;;0.70;;
22549;SDS011;11441;57.164;-2.120;2022-11-09T01:52:13;1.20;;;0.50;;
22549;SDS011;11441;57.164;-2.120;2022-11-09T01:54:43;3.45;;;1.08;;
22549;SDS011;11441;57.164;-2.120;2022-11-09T02:00:19;3.25;;;0.55;;
22549;SDS011;11441;57.164;-2.120;2022-11-09T02:02:47;1.30;;;0.70;;
22549;SDS011;11441;57.164;-2.120;2022-11-09T02:05:20;1.90;;;0.60;;
22549;SDS011;11441;57.164;-2.120;2022-11-09T02:07:52;1.83;;;0.65;;
22549;SDS011;11441;57.164;-2.120;2022-11-09T02:13:13;2.57;;;0.80;;
22549;SDS011;11441;57.164;-2.120;2022-11-09T02:15:44;0.68;;;0.50;;
22549;SDS011;11441;57.164;-2.120;2022-11-09T02:18:12;2.33;;;0.95;;
22549;SDS011;11441;57.164;-2.120;2022-11-09T02:20:42;3.67;;;1.40;;
22549;SDS011;11441;57.164;-2.120;2022-11-09T02:23:11;3.03;;;0.52;;
22549;SDS011;11441;57.164;-2.120;2022-11-09T02:25:39;1.65;;;0.55;;
22549;SDS011;11441;57.164;-2.120;2022-11-09T02:28:06;3.97;;;0.82;;
22549;SDS011;11441;57.164;-2.120;2022-11-09T02:30:34;0.45;;;0.30;;
22549;SDS011;11441;57.164;-2.120;2022-11-09T02:33:03;1.92;;;0.50;;
22549;SDS011;11441;57.164;-2.120;2022-11-09T02:35:30;3.40;;;0.65;;
22549;SDS011;11441;57.164;-2.120;2022-11-09T02:37:57;3.72;;;1.05;;
22549;SDS011;11441;57.164;-2.120;2022-11-09T02:40:30;2.45;;;0.50;;
22549;SDS011;11441;57.164;-2.120;2022-11-09T02:43:03;2.70;;;0.50;;
22549;SDS011;11441;57.164;-2.120;2022-11-09T02:45:33;2.63;;;0.60;;
22549;SDS011;11441;57.164;-2.120;2022-11-09T02:48:02;4.40;;;0.93;;
22549;SDS011;11441;57.164;-2.120;2022-11-09T02:50:32;1.48;;;0.50;;
22549;SDS011;11441;57.164;-2.120;2022-11-09T02:53:03;2.00;;;0.50;;
22549;SDS011;11441;57.164;-2.120;2022-11-09T02:55:33;0.95;;;0.30;;
22549;SDS011;11441;57.164;-2.120;2022-11-09T02:58:00;3.57;;;0.50;;
22549;SDS011;11441;57.164;-2.120;2022-11-09T03:00:28;1.58;;;0.52;;
22549;SDS011;11441;57.164;-2.120;2022-11-09T03:02:55;1.00;;;0.28;;
22549;SDS011;11441;57.164;-2.120;2022-11-09T03:05:22;4.17;;;0.53;;
22549;SDS011;11441;57.164;-2.120;2022-11-09T03:07:49;2.57;;;0.40;;
22549;SDS011;11441;57.164;-2.120;2022-11-09T03:10:16;1.63;;;0.50;;
22549;SDS011;11441;57.164;-2.120;2022-11-09T03:12:45;3.10;;;0.60;;
22549;SDS011;11441;57.164;-2.120;2022-11-09T03:15:13;2.20;;;0.38;;
22549;SDS011;11441;57.164;-2.120;2022-11-09T03:17:43;1.15;;;0.57;;
22549;SDS011;11441;57.164;-2.120;2022-11-09T03:20:11;4.30;;;0.83;;
22549;SDS011;11441;57.164;-2.120;2022-11-09T03:22:39;1.40;;;0.50;;
22549;SDS011;11441;57.164;-2.120;2022-11-09T03:25:07;0.63;;;0.38;;
22549;SDS011;11441;57.164;-2.120;2022-11-09T03:27:34;2.53;;;0.60;;
22549;SDS011;11441;57.164;-2.120;2022-11-09T03:30:19;1.52;;;0.45;;
22549;SDS011;11441;57.164;-2.120;2022-11-09T03:32:46;1.98;;;0.40;;
22549;SDS011;11441;57.164;-2.120;2022-11-09T03:35:16;2.13;;;0.30;;
22549;SDS011;11441;57.164;-2.120;2022-11-09T03:37:43;2.17;;;0.60;;
22549;SDS011;11441;57.164;-2.120;2022-11-09T03:40:10;0.85;;;0.50;;
22549;SDS011;11441;57.164;-2.120;2022-11-09T03:42:42;2.75;;;0.63;;
22549;SDS011;11441;57.164;-2.120;2022-11-09T03:45:10;2.07;;;0.70;;
22549;SDS011;11441;57.164;-2.120;2022-11-09T03:47:41;3.33;;;0.50;;
22549;SDS011;11441;57.164;-2.120;2022-11-09T03:50:09;3.40;;;0.80;;
22549;SDS011;11441;57.164;-2.120;2022-11-09T03:52:37;0.40;;;0.40;;
22549;SDS011;11441;57.164;-2.120;2022-11-09T03:55:04;0.50;;;0.30;;
22549;SDS011;11441;57.164;-2.120;2022-11-09T03:57:32;0.93;;;0.50;;
22549;SDS011;11441;57.164;-2.120;2022-11-09T03:59:59;1.30;;;0.40;;
22549;SDS011;11441;57.164;-2.120;2022-11-09T04:02:25;1.65;;;0.50;;
22549;SDS011;11441;57.164;-2.120;2022-11-09T04:04:52;0.52;;;0.30;;
22549;SDS011;11441;57.164;-2.120;2022-11-09T04:07:19;1.88;;;0.55;;
22549;SDS011;11441;57.164;-2.120;2022-11-09T04:09:46;0.60;;;0.40;;
22549;SDS011;11441;57.164;-2.120;2022-11-09T04:12:13;0.80;;;0.80;;
22549;SDS011;11441;57.164;-2.120;2022-11-09T04:14:40;1.63;;;0.37;;
22549;SDS011;11441;57.164;-2.120;2022-11-09T04:17:07;0.70;;;0.50;;
22549;SDS011;11441;57.164;-2.120;2022-11-09T04:19:33;1.17;;;0.50;;
22549;SDS011;11441;57.164;-2.120;2022-11-09T04:22:01;3.27;;;0.37;;
22549;SDS011;11441;57.164;-2.120;2022-11-09T04:24:27;1.20;;;0.50;;
22549;SDS011;11441;57.164;-2.120;2022-11-09T04:27:13;3.00;;;0.40;;
22549;SDS011;11441;57.164;-2.120;2022-11-09T04:29:40;2.05;;;0.40;;
22549;SDS011;11441;57.164;-2.120;2022-11-09T04:32:07;1.55;;;0.50;;
22549;SDS011;11441;57.164;-2.120;2022-11-09T04:34:34;1.88;;;0.70;;
22549;SDS011;11441;57.164;-2.120;2022-11-09T04:37:19;1.08;;;0.68;;
22549;SDS011;11441;57.164;-2.120;2022-11-09T04:39:46;0.65;;;0.50;;
22549;SDS011;11441;57.164;-2.120;2022-11-09T04:42:13;2.92;;;0.50;;
22549;SDS011;11441;57.164;-2.120;2022-11-09T04:44:40;1.92;;;0.80;;
22549;SDS011;11441;57.164;-2.120;2022-11-09T04:47:06;5.40;;;0.93;;
22549;SDS011;11441;57.164;-2.120;2022-11-09T04:49:33;1.63;;;0.55;;
22549;SDS011;11441;57.164;-2.120;2022-11-09T04:52:00;1.33;;;0.50;;
22549;SDS011;11441;57.164;-2.120;2022-11-09T04:54:27;1.20;;;0.40;;
22549;SDS011;11441;57.164;-2.120;2022-11-09T04:56:54;1.95;;;0.68;;
22549;SDS011;11441;57.164;-2.120;2022-11-09T04:59:20;2.80;;;0.50;;
22549;SDS011;11441;57.164;-2.120;2022-11-09T05:01:47;1.13;;;0.50;;
22549;SDS011;11441;57.164;-2.120;2022-11-09T05:04:14;2.20;;;0.80;;
22549;SDS011;11441;57.164;-2.120;2022-11-09T05:06:41;1.20;;;0.40;;
22549;SDS011;11441;57.164;-2.120;2022-11-09T05:09:08;3.90;;;0.50;;
22549;SDS011;11441;57.164;-2.120;2022-11-09T05:11:35;1.75;;;0.45;;
22549;SDS011;11441;57.164;-2.120;2022-11-09T05:14:02;1.77;;;0.57;;
22549;SDS011;11441;57.164;-2.120;2022-11-09T05:16:29;0.40;;;0.30;;
22549;SDS011;11441;57.164;-2.120;2022-11-09T05:18:56;2.15;;;0.50;;
22549;SDS011;11441;57.164;-2.120;2022-11-09T05:21:23;0.65;;;0.50;;
22549;SDS011;11441;57.164;-2.120;2022-11-09T05:23:50;2.42;;;0.40;;
22549;SDS011;11441;57.164;-2.120;2022-11-09T05:26:36;0.80;;;0.52;;
22549;SDS011;11441;57.164;-2.120;2022-11-09T05:29:09;2.10;;;0.28;;
22549;SDS011;11441;57.164;-2.120;2022-11-09T05:31:38;1.98;;;0.45;;
22549;SDS011;11441;57.164;-2.120;2022-11-09T05:34:06;0.40;;;0.30;;
22549;SDS011;11441;57.164;-2.120;2022-11-09T05:36:35;0.40;;;0.40;;
22549;SDS011;11441;57.164;-2.120;2022-11-09T05:39:02;1.48;;;0.40;;
22549;SDS011;11441;57.164;-2.120;2022-11-09T05:41:29;0.90;;;0.38;;
22549;SDS011;11441;57.164;-2.120;2022-11-09T05:43:56;2.00;;;0.50;;
22549;SDS011;11441;57.164;-2.120;2022-11-09T05:46:23;2.17;;;0.32;;
22549;SDS011;11441;57.164;-2.120;2022-11-09T05:48:50;0.87;;;0.30;;
22549;SDS011;11441;57.164;-2.120;2022-11-09T05:51:17;2.03;;;0.55;;
22549;SDS011;11441;57.164;-2.120;2022-11-09T05:53:44;0.57;;;0.50;;
22549;SDS011;11441;57.164;-2.120;2022-11-09T05:56:13;0.60;;;0.30;;
22549;SDS011;11441;57.164;-2.120;2022-11-09T05:58:40;1.73;;;0.35;;
22549;SDS011;11441;57.164;-2.120;2022-11-09T06:01:08;2.53;;;0.47;;
22549;SDS011;11441;57.164;-2.120;2022-11-09T06:03:37;1.20;;;0.50;;
22549;SDS011;11441;57.164;-2.120;2022-11-09T06:06:04;3.40;;;0.33;;
22549;SDS011;11441;57.164;-2.120;2022-11-09T06:08:34;0.47;;;0.40;;
22549;SDS011;11441;57.164;-2.120;2022-11-09T06:11:05;1.07;;;0.20;;
22549;SDS011;11441;57.164;-2.120;2022-11-09T06:13:34;1.42;;;0.52;;
22549;SDS011;11441;57.164;-2.120;2022-11-09T06:16:19;0.50;;;0.30;;
22549;SDS011;11441;57.164;-2.120;2022-11-09T06:18:45;2.78;;;0.45;;
22549;SDS011;11441;57.164;-2.120;2022-11-09T06:21:13;2.53;;;0.45;;
22549;SDS011;11441;57.164;-2.120;2022-11-09T06:23:39;0.30;;;0.30;;
22549;SDS011;11441;57.164;-2.120;2022-11-09T06:26:07;0.50;;;0.30;;
22549;SDS011;11441;57.164;-2.120;2022-11-09T06:28:39;1.75;;;0.40;;
22549;SDS011;11441;57.164;-2.120;2022-11-09T06:31:07;0.63;;;0.30;;
22549;SDS011;11441;57.164;-2.120;2022-11-09T06:33:37;3.80;;;0.60;;
22549;SDS011;11441;57.164;-2.120;2022-11-09T06:36:04;2.05;;;0.68;;
22549;SDS011;11441;57.164;-2.120;2022-11-09T06:38:31;2.28;;;0.30;;
22549;SDS011;11441;57.164;-2.120;2022-11-09T06:40:58;3.57;;;0.70;;
22549;SDS011;11441;57.164;-2.120;2022-11-09T06:43:26;0.43;;;0.30;;
22549;SDS011;11441;57.164;-2.120;2022-11-09T06:45:53;1.55;;;0.50;;
22549;SDS011;11441;57.164;-2.120;2022-11-09T06:51:06;1.75;;;0.43;;
22549;SDS011;11441;57.164;-2.120;2022-11-09T06:53:33;2.70;;;0.40;;
22549;SDS011;11441;57.164;-2.120;2022-11-09T06:56:00;0.30;;;0.30;;
22549;SDS011;11441;57.164;-2.120;2022-11-09T06:58:28;0.85;;;0.60;;
22549;SDS011;11441;57.164;-2.120;2022-11-09T07:00:56;0.73;;;0.25;;
22549;SDS011;11441;57.164;-2.120;2022-11-09T07:03:24;2.90;;;0.40;;
22549;SDS011;11441;57.164;-2.120;2022-11-09T07:05:51;1.97;;;0.40;;
22549;SDS011;11441;57.164;-2.120;2022-11-09T07:08:18;2.25;;;0.30;;
22549;SDS011;11441;57.164;-2.120;2022-11-09T07:10:45;2.50;;;0.50;;
22549;SDS011;11441;57.164;-2.120;2022-11-09T07:13:12;2.78;;;0.52;;
22549;SDS011;11441;57.164;-2.120;2022-11-09T07:15:39;1.00;;;0.38;;
22549;SDS011;11441;57.164;-2.120;2022-11-09T07:18:07;1.58;;;0.50;;
22549;SDS011;11441;57.164;-2.120;2022-11-09T07:20:36;3.33;;;0.63;;
22549;SDS011;11441;57.164;-2.120;2022-11-09T07:23:03;2.47;;;0.47;;
22549;SDS011;11441;57.164;-2.120;2022-11-09T07:25:30;2.58;;;0.50;;
22549;SDS011;11441;57.164;-2.120;2022-11-09T07:28:03;2.40;;;0.82;;
22549;SDS011;11441;57.164;-2.120;2022-11-09T07:30:33;2.15;;;0.35;;
22549;SDS011;11441;57.164;-2.120;2022-11-09T07:33:00;0.80;;;0.30;;
22549;SDS011;11441;57.164;-2.120;2022-11-09T07:35:46;2.13;;;0.52;;
22549;SDS011;11441;57.164;-2.120;2022-11-09T07:38:14;5.85;;;0.50;;
22549;SDS011;11441;57.164;-2.120;2022-11-09T07:41:00;2.33;;;0.60;;
22549;SDS011;11441;57.164;-2.120;2022-11-09T07:43:28;2.40;;;0.43;;
22549;SDS011;11441;57.164;-2.120;2022-11-09T07:45:57;4.28;;;0.45;;
22549;SDS011;11441;57.164;-2.120;2022-11-09T07:48:24;2.70;;;0.57;;
22549;SDS011;11441;57.164;-2.120;2022-11-09T07:50:50;2.35;;;0.63;;
22549;SDS011;11441;57.164;-2.120;2022-11-09T07:53:17;1.90;;;0.50;;
22549;SDS011;11441;57.164;-2.120;2022-11-09T07:55:44;3.75;;;0.50;;
22549;SDS011;11441;57.164;-2.120;2022-11-09T07:58:12;3.28;;;0.50;;
22549;SDS011;11441;57.164;-2.120;2022-11-09T08:00:40;2.00;;;0.75;;
22549;SDS011;11441;57.164;-2.120;2022-11-09T08:03:08;5.78;;;0.82;;
22549;SDS011;11441;57.164;-2.120;2022-11-09T08:05:35;4.70;;;1.35;;
22549;SDS011;11441;57.164;-2.120;2022-11-09T08:08:04;1.88;;;0.52;;
22549;SDS011;11441;57.164;-2.120;2022-11-09T08:10:33;1.88;;;0.43;;
22549;SDS011;11441;57.164;-2.120;2022-11-09T08:13:02;4.45;;;0.52;;
22549;SDS011;11441;57.164;-2.120;2022-11-09T08:15:34;4.47;;;0.50;;
22549;SDS011;11441;57.164;-2.120;2022-11-09T08:18:02;3.47;;;0.73;;
22549;SDS011;11441;57.164;-2.120;2022-11-09T08:20:32;4.38;;;0.63;;
22549;SDS011;11441;57.164;-2.120;2022-11-09T08:23:00;2.53;;;0.82;;
22549;SDS011;11441;57.164;-2.120;2022-11-09T08:25:33;2.55;;;0.40;;
22549;SDS011;11441;57.164;-2.120;2022-11-09T08:28:01;3.58;;;0.50;;
22549;SDS011;11441;57.164;-2.120;2022-11-09T08:30:29;3.13;;;0.60;;
22549;SDS011;11441;57.164;-2.120;2022-11-09T08:32:57;6.53;;;0.90;;
22549;SDS011;11441;57.164;-2.120;2022-11-09T08:35:25;3.55;;;0.60;;
22549;SDS011;11441;57.164;-2.120;2022-11-09T08:37:52;1.73;;;0.82;;
22549;SDS011;11441;57.164;-2.120;2022-11-09T08:40:21;3.70;;;0.60;;
22549;SDS011;11441;57.164;-2.120;2022-11-09T08:42:50;2.40;;;0.70;;
22549;SDS011;11441;57.164;-2.120;2022-11-09T08:45:19;2.28;;;0.93;;
22549;SDS011;11441;57.164;-2.120;2022-11-09T08:47:46;3.33;;;0.70;;
22549;SDS011;11441;57.164;-2.120;2022-11-09T08:50:13;2.53;;;0.60;;
22549;SDS011;11441;57.164;-2.120;2022-11-09T08:52:41;4.97;;;0.57;;
22549;SDS011;11441;57.164;-2.120;2022-11-09T08:55:07;3.83;;;0.57;;
22549;SDS011;11441;57.164;-2.120;2022-11-09T08:57:35;1.92;;;0.47;;
22549;SDS011;11441;57.164;-2.120;2022-11-09T09:00:02;1.00;;;0.35;;
22549;SDS011;11441;57.164;-2.120;2022-11-09T09:02:30;3.40;;;0.68;;
22549;SDS011;11441;57.164;-2.120;2022-11-09T09:04:57;4.07;;;0.77;;
22549;SDS011;11441;57.164;-2.120;2022-11-09T09:10:09;2.05;;;0.47;;
22549;SDS011;11441;57.164;-2.120;2022-11-09T09:12:36;3.22;;;0.60;;
22549;SDS011;11441;57.164;-2.120;2022-11-09T09:15:03;3.10;;;0.63;;
22549;SDS011;11441;57.164;-2.120;2022-11-09T09:17:31;4.45;;;0.90;;
22549;SDS011;11441;57.164;-2.120;2022-11-09T09:20:00;4.40;;;0.63;;
22549;SDS011;11441;57.164;-2.120;2022-11-09T09:22:29;2.17;;;0.40;;
22549;SDS011;11441;57.164;-2.120;2022-11-09T09:24:58;5.00;;;0.60;;
22549;SDS011;11441;57.164;-2.120;2022-11-09T09:27:25;5.50;;;0.88;;
22549;SDS011;11441;57.164;-2.120;2022-11-09T09:29:52;4.53;;;0.88;;
22549;SDS011;11441;57.164;-2.120;2022-11-09T09:32:37;2.33;;;0.70;;
22549;SDS011;11441;57.164;-2.120;2022-11-09T09:35:04;6.18;;;0.80;;
22549;SDS011;11441;57.164;-2.120;2022-11-09T09:37:31;5.18;;;1.02;;
22549;SDS011;11441;57.164;-2.120;2022-11-09T09:39:58;7.22;;;1.10;;
22549;SDS011;11441;57.164;-2.120;2022-11-09T09:42:35;3.38;;;0.88;;
22549;SDS011;11441;57.164;-2.120;2022-11-09T09:45:18;5.72;;;1.25;;
22549;SDS011;11441;57.164;-2.120;2022-11-09T09:50:39;4.20;;;0.65;;
22549;SDS011;11441;57.164;-2.120;2022-11-09T09:53:28;5.10;;;0.80;;
22549;SDS011;11441;57.164;-2.120;2022-11-09T09:56:01;5.07;;;1.58;;
22549;SDS011;11441;57.164;-2.120;2022-11-09T09:58:32;3.72;;;0.75;;
22549;SDS011;11441;57.164;-2.120;2022-11-09T10:01:10;10.45;;;1.42;;
22549;SDS011;11441;57.164;-2.120;2022-11-09T10:03:38;5.22;;;0.95;;
22549;SDS011;11441;57.164;-2.120;2022-11-09T10:14:39;5.07;;;1.08;;
22549;SDS011;11441;57.164;-2.120;2022-11-09T10:23:42;3.67;;;0.73;;
22549;SDS011;11441;57.164;-2.120;2022-11-09T10:26:04;9.52;;;1.17;;
22549;SDS011;11441;57.164;-2.120;2022-11-09T10:31:42;5.70;;;1.20;;
22549;SDS011;11441;57.164;-2.120;2022-11-09T10:34:35;4.32;;;0.80;;
22549;SDS011;11441;57.164;-2.120;2022-11-09T10:37:05;8.27;;;1.05;;
22549;SDS011;11441;57.164;-2.120;2022-11-09T10:39:43;8.95;;;1.58;;
22549;SDS011;11441;57.164;-2.120;2022-11-09T10:42:34;5.60;;;1.17;;
22549;SDS011;11441;57.164;-2.120;2022-11-09T10:45:30;4.72;;;1.30;;
22549;SDS011;11441;57.164;-2.120;2022-11-09T10:48:24;7.13;;;0.93;;
22549;SDS011;11441;57.164;-2.120;2022-11-09T10:54:19;8.82;;;1.42;;
22549;SDS011;11441;57.164;-2.120;2022-11-09T10:57:13;10.73;;;1.85;;
22549;SDS011;11441;57.164;-2.120;2022-11-09T11:00:02;9.52;;;1.73;;
22549;SDS011;11441;57.164;-2.120;2022-11-09T11:02:49;9.15;;;2.47;;
22549;SDS011;11441;57.164;-2.120;2022-11-09T11:05:35;7.38;;;1.70;;
22549;SDS011;11441;57.164;-2.120;2022-11-09T11:08:30;8.48;;;1.35;;
22549;SDS011;11441;57.164;-2.120;2022-11-09T11:14:30;6.47;;;1.73;;
22549;SDS011;11441;57.164;-2.120;2022-11-09T11:17:22;6.10;;;1.58;;
22549;SDS011;11441;57.164;-2.120;2022-11-09T11:23:16;9.50;;;1.77;;
22549;SDS011;11441;57.164;-2.120;2022-11-09T11:32:15;8.02;;;1.70;;
22549;SDS011;11441;57.164;-2.120;2022-11-09T11:35:12;4.90;;;0.90;;
22549;SDS011;11441;57.164;-2.120;2022-11-09T11:39:02;9.82;;;1.60;;
22549;SDS011;11441;57.164;-2.120;2022-11-09T11:41:43;11.30;;;1.92;;
22549;SDS011;11441;57.164;-2.120;2022-11-09T11:52:07;6.25;;;1.42;;
22549;SDS011;11441;57.164;-2.120;2022-11-09T12:07:51;5.97;;;1.40;;
22549;SDS011;11441;57.164;-2.120;2022-11-09T12:17:27;7.22;;;1.00;;
22549;SDS011;11441;57.164;-2.120;2022-11-09T12:23:32;10.32;;;1.50;;
22549;SDS011;11441;57.164;-2.120;2022-11-09T12:38:59;12.05;;;2.38;;
22549;SDS011;11441;57.164;-2.120;2022-11-09T12:41:50;8.98;;;1.60;;
22549;SDS011;11441;57.164;-2.120;2022-11-09T12:44:42;10.80;;;1.75;;
22549;SDS011;11441;57.164;-2.120;2022-11-09T12:47:36;10.48;;;2.28;;
22549;SDS011;11441;57.164;-2.120;2022-11-09T12:50:25;7.15;;;1.52;;
22549;SDS011;11441;57.164;-2.120;2022-11-09T12:53:11;7.72;;;1.58;;
22549;SDS011;11441;57.164;-2.120;2022-11-09T12:56:02;9.60;;;1.55;;
22549;SDS011;11441;57.164;-2.120;2022-11-09T12:58:49;9.57;;;2.15;;
22549;SDS011;11441;57.164;-2.120;2022-11-09T13:04:21;9.00;;;1.63;;
22549;SDS011;11441;57.164;-2.120;2022-11-09T13:09:53;8.93;;;1.45;;
22549;SDS011;11441;57.164;-2.120;2022-11-09T13:12:40;5.78;;;1.05;;
22549;SDS011;11441;57.164;-2.120;2022-11-09T13:15:28;5.82;;;1.67;;
22549;SDS011;11441;57.164;-2.120;2022-11-09T13:18:22;8.05;;;1.95;;
22549;SDS011;11441;57.164;-2.120;2022-11-09T13:24:47;3.78;;;0.95;;
22549;SDS011;11441;57.164;-2.120;2022-11-09T13:33:17;5.60;;;1.00;;
22549;SDS011;11441;57.164;-2.120;2022-11-09T13:42:25;6.50;;;1.83;;
22549;SDS011;11441;57.164;-2.120;2022-11-09T13:45:56;4.85;;;1.08;;
22549;SDS011;11441;57.164;-2.120;2022-11-09T13:51:24;8.02;;;1.63;;
22549;SDS011;11441;57.164;-2.120;2022-11-09T13:57:12;9.57;;;2.35;;
22549;SDS011;11441;57.164;-2.120;2022-11-09T13:59:57;8.27;;;1.98;;
22549;SDS011;11441;57.164;-2.120;2022-11-09T14:06:05;9.82;;;1.73;;
22549;SDS011;11441;57.164;-2.120;2022-11-09T14:08:50;12.55;;;2.40;;
22549;SDS011;11441;57.164;-2.120;2022-11-09T14:11:44;8.63;;;1.55;;
22549;SDS011;11441;57.164;-2.120;2022-11-09T14:14:56;7.97;;;2.20;;
22549;SDS011;11441;57.164;-2.120;2022-11-09T14:24:02;9.77;;;1.80;;
22549;SDS011;11441;57.164;-2.120;2022-11-09T14:29:55;8.57;;;2.15;;
22549;SDS011;11441;57.164;-2.120;2022-11-09T14:32:47;7.13;;;1.55;;
22549;SDS011;11441;57.164;-2.120;2022-11-09T14:35:54;9.32;;;2.03;;
22549;SDS011;11441;57.164;-2.120;2022-11-09T14:38:43;7.95;;;1.50;;
22549;SDS011;11441;57.164;-2.120;2022-11-09T14:41:31;7.28;;;1.83;;
22549;SDS011;11441;57.164;-2.120;2022-11-09T14:44:30;8.25;;;1.58;;
22549;SDS011;11441;57.164;-2.120;2022-11-09T14:47:22;6.57;;;1.30;;
22549;SDS011;11441;57.164;-2.120;2022-11-09T14:50:21;8.70;;;1.48;;
22549;SDS011;11441;57.164;-2.120;2022-11-09T14:53:18;9.90;;;1.70;;
22549;SDS011;11441;57.164;-2.120;2022-11-09T14:56:10;12.48;;;1.85;;
22549;SDS011;11441;57.164;-2.120;2022-11-09T14:58:59;7.72;;;1.63;;
22549;SDS011;11441;57.164;-2.120;2022-11-09T15:01:56;8.38;;;2.00;;
22549;SDS011;11441;57.164;-2.120;2022-11-09T15:04:56;5.90;;;1.75;;
22549;SDS011;11441;57.164;-2.120;2022-11-09T15:07:44;8.50;;;1.75;;
22549;SDS011;11441;57.164;-2.120;2022-11-09T15:10:32;6.20;;;1.90;;
22549;SDS011;11441;57.164;-2.120;2022-11-09T15:13:18;8.63;;;1.10;;
22549;SDS011;11441;57.164;-2.120;2022-11-09T15:16:20;6.28;;;2.20;;
22549;SDS011;11441;57.164;-2.120;2022-11-09T15:25:29;6.07;;;0.88;;
22549;SDS011;11441;57.164;-2.120;2022-11-09T15:31:29;5.75;;;1.38;;
22549;SDS011;11441;57.164;-2.120;2022-11-09T15:37:24;4.72;;;1.33;;
22549;SDS011;11441;57.164;-2.120;2022-11-09T15:40:31;5.95;;;1.50;;
22549;SDS011;11441;57.164;-2.120;2022-11-09T15:43:16;9.32;;;1.80;;
22549;SDS011;11441;57.164;-2.120;2022-11-09T15:46:02;9.02;;;2.38;;
22549;SDS011;11441;57.164;-2.120;2022-11-09T15:48:48;8.52;;;1.65;;
22549;SDS011;11441;57.164;-2.120;2022-11-09T15:51:33;6.28;;;1.77;;
22549;SDS011;11441;57.164;-2.120;2022-11-09T15:54:38;5.03;;;1.23;;
22549;SDS011;11441;57.164;-2.120;2022-11-09T15:57:30;12.73;;;1.75;;
22549;SDS011;11441;57.164;-2.120;2022-11-09T16:00:16;7.72;;;1.48;;
22549;SDS011;11441;57.164;-2.120;2022-11-09T16:03:05;6.78;;;1.60;;
22549;SDS011;11441;57.164;-2.120;2022-11-09T16:05:50;9.20;;;2.00;;
22549;SDS011;11441;57.164;-2.120;2022-11-09T16:08:36;9.40;;;2.47;;
22549;SDS011;11441;57.164;-2.120;2022-11-09T16:11:22;8.70;;;2.00;;
22549;SDS011;11441;57.164;-2.120;2022-11-09T16:14:07;10.95;;;2.30;;
22549;SDS011;11441;57.164;-2.120;2022-11-09T16:16:52;13.13;;;2.67;;
22549;SDS011;11441;57.164;-2.120;2022-11-09T16:19:37;11.43;;;2.20;;
22549;SDS011;11441;57.164;-2.120;2022-11-09T16:22:27;10.75;;;2.08;;
22549;SDS011;11441;57.164;-2.120;2022-11-09T16:25:14;13.40;;;3.15;;
22549;SDS011;11441;57.164;-2.120;2022-11-09T16:28:00;11.18;;;2.13;;
22549;SDS011;11441;57.164;-2.120;2022-11-09T16:30:45;7.45;;;1.83;;
22549;SDS011;11441;57.164;-2.120;2022-11-09T16:36:35;10.82;;;2.35;;
22549;SDS011;11441;57.164;-2.120;2022-11-09T16:39:25;16.27;;;3.03;;
22549;SDS011;11441;57.164;-2.120;2022-11-09T16:42:11;12.40;;;1.83;;
22549;SDS011;11441;57.164;-2.120;2022-11-09T16:45:03;9.35;;;2.20;;
22549;SDS011;11441;57.164;-2.120;2022-11-09T16:47:53;8.43;;;1.48;;
22549;SDS011;11441;57.164;-2.120;2022-11-09T16:50:41;7.65;;;1.65;;
22549;SDS011;11441;57.164;-2.120;2022-11-09T16:53:27;11.10;;;1.77;;
22549;SDS011;11441;57.164;-2.120;2022-11-09T16:56:13;6.28;;;1.50;;
22549;SDS011;11441;57.164;-2.120;2022-11-09T16:58:59;9.85;;;2.03;;
22549;SDS011;11441;57.164;-2.120;2022-11-09T17:05:07;8.48;;;1.70;;
22549;SDS011;11441;57.164;-2.120;2022-11-09T17:07:53;13.07;;;2.42;;
22549;SDS011;11441;57.164;-2.120;2022-11-09T17:13:42;10.27;;;2.90;;
22549;SDS011;11441;57.164;-2.120;2022-11-09T17:16:28;9.77;;;2.95;;
22549;SDS011;11441;57.164;-2.120;2022-11-09T17:19:13;9.23;;;2.88;;
22549;SDS011;11441;57.164;-2.120;2022-11-09T17:25:03;7.55;;;2.67;;
22549;SDS011;11441;57.164;-2.120;2022-11-09T17:27:50;7.85;;;2.05;;
22549;SDS011;11441;57.164;-2.120;2022-11-09T17:30:35;11.00;;;1.80;;
22549;SDS011;11441;57.164;-2.120;2022-11-09T17:33:25;11.50;;;2.35;;
22549;SDS011;11441;57.164;-2.120;2022-11-09T17:36:11;10.43;;;2.60;;
22549;SDS011;11441;57.164;-2.120;2022-11-09T17:38:58;8.18;;;1.75;;
22549;SDS011;11441;57.164;-2.120;2022-11-09T17:41:45;9.50;;;1.75;;
22549;SDS011;11441;57.164;-2.120;2022-11-09T17:44:30;10.15;;;2.35;;
22549;SDS011;11441;57.164;-2.120;2022-11-09T17:47:18;12.50;;;2.70;;
22549;SDS011;11441;57.164;-2.120;2022-11-09T17:50:04;9.77;;;1.90;;
22549;SDS011;11441;57.164;-2.120;2022-11-09T17:52:50;12.18;;;2.88;;
22549;SDS011;11441;57.164;-2.120;2022-11-09T17:55:36;11.40;;;1.60;;
22549;SDS011;11441;57.164;-2.120;2022-11-09T17:58:22;5.95;;;1.67;;
22549;SDS011;11441;57.164;-2.120;2022-11-09T18:01:13;7.80;;;2.58;;
22549;SDS011;11441;57.164;-2.120;2022-11-09T18:04:03;8.73;;;2.13;;
22549;SDS011;11441;57.164;-2.120;2022-11-09T18:06:50;10.48;;;2.70;;